createdAt,value
2022-10-11T00:02:15.567Z,14.10
2022-10-11T00:05:17.328Z,14.10
2022-10-11T00:08:19.110Z,14.10
2022-10-11T00:11:20.701Z,14.10
2022-10-11T00:14:23.389Z,14.10
2022-10-11T00:17:25.133Z,14.00
2022-10-11T00:20:26.957Z,14.00
2022-10-11T00:23:28.627Z,13.90
2022-10-11T00:26:30.262Z,13.90
2022-10-11T00:29:31.914Z,13.90
2022-10-11T00:32:34.901Z,13.80
2022-10-11T00:35:41.494Z,13.80
2022-10-11T00:38:44.134Z,13.70
2022-10-11T00:41:47.697Z,13.70
2022-10-11T00:44:50.649Z,13.60
2022-10-11T00:47:57.053Z,13.50
2022-10-11T00:51:01.207Z,13.50
2022-10-11T00:54:04.314Z,13.40
2022-10-11T00:57:13.858Z,13.40
2022-10-11T01:00:16.336Z,13.40
2022-10-11T01:03:22.982Z,13.40
2022-10-11T01:06:24.848Z,13.40
2022-10-11T01:09:26.606Z,13.40
2022-10-11T01:12:30.818Z,13.40
2022-10-11T01:15:58.554Z,13.40
2022-10-11T01:19:24.985Z,13.40
2022-10-11T01:22:38.924Z,13.30
2022-10-11T01:25:47.135Z,13.30
2022-10-11T01:29:09.377Z,13.20
2022-10-11T01:32:50.342Z,13.20
2022-10-11T01:36:12.310Z,13.10
2022-10-11T01:39:23.394Z,13.10
2022-10-11T01:42:26.925Z,13.10
2022-10-11T01:45:29.379Z,13.10
2022-10-11T01:48:31.035Z,13.00
2022-10-11T01:51:47.501Z,13.00
2022-10-11T01:55:13.570Z,12.90
2022-10-11T01:59:01.254Z,12.90
2022-10-11T02:02:21.754Z,12.80
2022-10-11T02:05:44.362Z,12.90
2022-10-11T02:09:02.275Z,12.90
2022-10-11T02:12:10.711Z,12.80
2022-10-11T02:15:14.518Z,12.80
2022-10-11T02:18:21.975Z,12.80
2022-10-11T02:21:24.629Z,12.70
2022-10-11T02:24:30.329Z,12.70
2022-10-11T02:27:35.863Z,12.60
2022-10-11T02:30:38.660Z,12.60
2022-10-11T02:34:17.509Z,12.50
2022-10-11T02:37:29.258Z,12.30
2022-10-11T02:40:35.486Z,12.20
2022-10-11T02:43:41.498Z,12.10
2022-10-11T02:46:45.181Z,12.00
2022-10-11T02:49:46.765Z,11.90
2022-10-11T02:52:48.435Z,11.70
2022-10-11T02:55:52.698Z,11.70
2022-10-11T02:58:54.285Z,11.60
2022-10-11T03:01:55.929Z,11.50
2022-10-11T03:04:57.563Z,11.50
2022-10-11T03:07:59.118Z,11.40
2022-10-11T03:11:00.955Z,11.40
2022-10-11T03:14:02.624Z,11.40
2022-10-11T03:17:30.874Z,11.30
2022-10-11T03:20:26.761Z,11.30
2022-10-11T03:23:28.415Z,11.20
2022-10-11T03:26:29.960Z,11.20
2022-10-11T03:29:37.117Z,11.10
2022-10-11T03:32:39.086Z,11.00
2022-10-11T03:35:40.919Z,11.00
2022-10-11T03:38:42.644Z,10.90
2022-10-11T03:41:44.250Z,10.90
2022-10-11T03:44:45.894Z,10.80
2022-10-11T03:47:47.474Z,10.80
2022-10-11T03:50:49.331Z,10.80
2022-10-11T03:53:50.899Z,10.70
2022-10-11T03:56:52.490Z,10.70
2022-10-11T03:59:54.051Z,10.60
2022-10-11T04:02:55.643Z,10.50
2022-10-11T04:06:00.234Z,10.60
2022-10-11T04:09:02.658Z,10.50
2022-10-11T04:12:04.350Z,10.40
2022-10-11T04:15:07.215Z,10.30
2022-10-11T04:18:09.767Z,10.30
2022-10-11T04:21:11.519Z,10.20
2022-10-11T04:24:13.119Z,10.20
2022-10-11T04:27:14.662Z,10.20
2022-10-11T04:30:17.128Z,10.10
2022-10-11T04:33:18.807Z,10.10
2022-10-11T04:36:20.359Z,10.00
2022-10-11T04:39:21.946Z,9.90
2022-10-11T04:42:23.600Z,9.80
2022-10-11T04:45:25.533Z,9.80
2022-10-11T04:48:27.244Z,9.70
2022-10-11T04:51:28.820Z,9.70
2022-10-11T04:54:30.429Z,9.50
2022-10-11T04:57:32.033Z,9.50
2022-10-11T05:00:33.648Z,9.40
2022-10-11T05:03:35.516Z,9.40
2022-10-11T05:06:37.092Z,9.30
2022-10-11T05:09:38.666Z,9.30
2022-10-11T05:12:40.381Z,9.20
2022-10-11T05:15:41.956Z,9.20
2022-10-11T05:18:43.721Z,9.20
2022-10-11T05:21:45.322Z,9.10
2022-10-11T05:24:47.011Z,9.00
2022-10-11T05:27:49.358Z,8.90
2022-10-11T05:30:51.051Z,8.90
2022-10-11T05:33:52.636Z,8.80
2022-10-11T05:36:54.251Z,8.80
2022-10-11T05:39:55.945Z,8.80
2022-10-11T05:42:57.501Z,8.70
2022-10-11T05:45:59.086Z,8.70
2022-10-11T05:49:00.836Z,8.60
2022-10-11T05:52:02.451Z,8.60
2022-10-11T05:55:04.466Z,8.60
2022-10-11T05:58:06.987Z,8.70
2022-10-11T06:01:26.192Z,8.70
2022-10-11T06:04:27.811Z,8.60
2022-10-11T06:07:29.462Z,8.60
2022-10-11T06:10:31.077Z,8.60
2022-10-11T06:13:32.658Z,8.70
2022-10-11T06:16:34.299Z,8.70
2022-10-11T06:19:36.354Z,8.70
2022-10-11T06:22:37.924Z,8.80
2022-10-11T06:25:39.488Z,8.80
2022-10-11T06:28:41.055Z,8.80
2022-10-11T06:31:43.006Z,8.80
2022-10-11T06:34:44.641Z,8.90
2022-10-11T06:37:46.333Z,8.80
2022-10-11T06:40:47.951Z,8.80
2022-10-11T06:43:49.823Z,8.90
2022-10-11T06:46:51.434Z,8.90
2022-10-11T06:49:53.111Z,9.00
2022-10-11T06:52:54.946Z,9.00
2022-10-11T06:56:09.472Z,9.10
2022-10-11T06:59:12.125Z,9.10
2022-10-11T07:02:13.739Z,9.20
2022-10-11T07:05:15.863Z,9.30
2022-10-11T07:08:17.576Z,9.40
2022-10-11T07:11:24.702Z,9.50
2022-10-11T07:14:26.283Z,9.60
2022-10-11T07:17:27.880Z,9.70
2022-10-11T07:20:29.533Z,9.70
2022-10-11T07:23:31.444Z,9.80
2022-10-11T07:26:38.625Z,9.90
2022-10-11T07:29:40.844Z,9.90
2022-10-11T07:32:42.478Z,10.00
2022-10-11T07:35:48.182Z,10.10
2022-10-11T07:38:50.319Z,10.20
2022-10-11T07:41:51.914Z,10.30
2022-10-11T07:44:53.745Z,10.40
2022-10-11T07:47:56.662Z,10.40
2022-10-11T07:51:08.280Z,10.40
2022-10-11T07:54:09.918Z,10.50
2022-10-11T07:57:11.499Z,10.50
2022-10-11T08:00:13.627Z,10.50
2022-10-11T08:03:15.227Z,10.50
2022-10-11T08:06:19.858Z,10.50
2022-10-11T08:09:21.498Z,10.50
2022-10-11T08:12:23.428Z,10.60
2022-10-11T08:15:25.336Z,10.70
2022-10-11T08:18:27.076Z,10.90
2022-10-11T08:21:28.796Z,11.00
2022-10-11T08:24:33.491Z,11.10
2022-10-11T08:27:37.594Z,11.20
2022-10-11T08:30:39.167Z,11.40
2022-10-11T08:33:41.068Z,11.50
2022-10-11T08:36:42.686Z,11.60
2022-10-11T08:39:44.250Z,11.80
2022-10-11T08:42:55.829Z,11.90
2022-10-11T08:46:01.231Z,11.90
2022-10-11T08:49:03.362Z,11.90
2022-10-11T08:52:22.222Z,11.80
2022-10-11T08:55:37.168Z,11.70
2022-10-11T08:59:13.638Z,11.90
2022-10-11T09:02:55.784Z,12.10
2022-10-11T09:06:14.206Z,12.20
2022-10-11T09:09:27.778Z,12.50
2022-10-11T09:12:50.178Z,12.50
2022-10-11T09:16:17.367Z,12.60
2022-10-11T09:19:45.598Z,12.70
2022-10-11T09:23:05.144Z,12.80
2022-10-11T09:26:14.555Z,12.80
2022-10-11T09:29:22.305Z,12.80
2022-10-11T09:32:28.617Z,12.90
2022-10-11T09:35:36.049Z,12.90
2022-10-11T09:38:41.812Z,12.90
2022-10-11T09:41:53.451Z,13.00
2022-10-11T09:44:57.244Z,13.10
2022-10-11T09:48:01.179Z,13.20
2022-10-11T09:51:08.088Z,13.20
2022-10-11T09:54:10.779Z,13.30
2022-10-11T09:57:28.841Z,13.40
2022-10-11T10:00:33.824Z,13.50
2022-10-11T10:03:41.010Z,13.40
2022-10-11T10:06:43.164Z,13.40
2022-10-11T10:09:44.841Z,13.40
2022-10-11T10:12:54.242Z,13.40
2022-10-11T10:15:59.043Z,13.40
2022-10-11T10:19:04.003Z,13.60
2022-10-11T10:22:06.118Z,13.60
2022-10-11T10:25:25.449Z,13.60
2022-10-11T10:28:27.475Z,13.60
2022-10-11T10:35:33.319Z,13.90
2022-10-11T10:38:49.881Z,14.00
2022-10-11T10:41:53.814Z,14.20
2022-10-11T10:44:58.424Z,14.30
2022-10-11T10:48:26.491Z,14.40
2022-10-11T10:51:48.035Z,14.40
2022-10-11T10:55:05.606Z,14.40
2022-10-11T10:58:22.169Z,14.60
2022-10-11T11:01:37.483Z,14.60
2022-10-11T11:04:41.492Z,14.60
2022-10-11T11:07:49.478Z,14.70
2022-10-11T11:11:10.653Z,14.80
2022-10-11T11:14:18.136Z,14.80
2022-10-11T11:17:45.069Z,14.80
2022-10-11T11:21:28.273Z,14.80
2022-10-11T11:24:40.944Z,14.90
2022-10-11T11:27:58.146Z,15.00
2022-10-11T11:31:11.520Z,15.00
2022-10-11T11:34:30.588Z,15.20
2022-10-11T11:37:41.646Z,15.20
2022-10-11T11:40:49.044Z,15.20
2022-10-11T11:43:59.879Z,15.20
2022-10-11T11:47:22.702Z,15.20
2022-10-11T11:50:27.308Z,15.20
2022-10-11T11:54:02.357Z,15.20
2022-10-11T11:57:20.910Z,15.20
2022-10-11T12:00:27.001Z,15.30
2022-10-11T12:03:41.429Z,15.40
2022-10-11T12:07:04.099Z,15.50
2022-10-11T12:10:23.462Z,15.60
2022-10-11T12:13:31.922Z,15.60
2022-10-11T12:16:34.128Z,15.70
2022-10-11T12:19:38.860Z,15.90
2022-10-11T12:23:02.081Z,15.90
2022-10-11T12:26:27.871Z,15.90
2022-10-11T12:29:49.736Z,16.00
2022-10-11T12:33:02.675Z,16.00
2022-10-11T12:36:29.557Z,15.90
2022-10-11T12:39:44.546Z,15.80
2022-10-11T12:43:15.251Z,15.60
2022-10-11T12:46:29.051Z,15.60
2022-10-11T12:49:33.611Z,15.70
2022-10-11T12:53:11.978Z,15.80
2022-10-11T12:56:34.786Z,15.80
2022-10-11T12:59:43.038Z,15.70
2022-10-11T13:02:44.894Z,15.80
2022-10-11T13:05:50.964Z,15.90
2022-10-11T13:09:13.686Z,16.00
2022-10-11T13:12:19.285Z,16.00
2022-10-11T13:15:22.596Z,16.00
2022-10-11T13:18:26.472Z,16.10
2022-10-11T13:21:36.136Z,16.00
2022-10-11T13:24:40.711Z,16.10
2022-10-11T13:27:43.166Z,16.10
2022-10-11T13:30:56.294Z,16.20
2022-10-11T13:33:59.423Z,16.10
2022-10-11T13:37:01.039Z,16.00
2022-10-11T13:40:02.926Z,15.90
2022-10-11T13:43:05.739Z,15.90
2022-10-11T13:46:16.383Z,15.90
2022-10-11T13:49:40.234Z,15.90
2022-10-11T13:53:08.185Z,15.90
2022-10-11T13:56:12.331Z,15.90
2022-10-11T13:59:25.333Z,16.00
2022-10-11T14:02:29.106Z,16.00
2022-10-11T14:05:32.588Z,16.00
2022-10-11T14:08:37.622Z,16.10
2022-10-11T14:11:39.900Z,16.10
2022-10-11T14:14:42.677Z,16.10
2022-10-11T14:17:45.449Z,16.10
2022-10-11T14:20:47.099Z,16.20
2022-10-11T14:24:00.727Z,16.20
2022-10-11T14:27:05.680Z,16.10
2022-10-11T14:30:27.272Z,16.20
2022-10-11T14:33:29.564Z,16.20
2022-10-11T14:36:31.590Z,16.20
2022-10-11T14:39:33.541Z,16.30
2022-10-11T14:42:35.135Z,16.30
2022-10-11T14:45:36.714Z,16.30
2022-10-11T14:48:54.429Z,16.40
2022-10-11T14:51:58.468Z,16.40
2022-10-11T14:55:00.083Z,16.30
2022-10-11T14:58:01.739Z,16.20
2022-10-11T15:01:03.400Z,16.30
2022-10-11T15:04:05.121Z,16.30
2022-10-11T15:07:06.770Z,16.20
2022-10-11T15:10:29.945Z,16.00
2022-10-11T15:13:31.568Z,15.90
2022-10-11T15:16:34.126Z,15.80
2022-10-11T15:19:35.840Z,15.70
2022-10-11T15:22:37.451Z,15.70
2022-10-11T15:25:40.541Z,15.60
2022-10-11T15:28:42.686Z,15.50
2022-10-11T15:31:45.752Z,15.50
2022-10-11T15:34:47.344Z,15.40
2022-10-11T15:37:53.202Z,15.30
2022-10-11T15:40:54.949Z,15.30
2022-10-11T15:43:56.628Z,15.30
2022-10-11T15:46:58.272Z,15.30
2022-10-11T15:49:59.941Z,15.30
2022-10-11T15:53:09.623Z,15.20
2022-10-11T15:56:18.839Z,15.20
2022-10-11T15:59:20.401Z,15.00
2022-10-11T16:02:22.069Z,15.00
2022-10-11T16:05:25.787Z,14.90
2022-10-11T16:08:27.735Z,14.90
2022-10-11T16:11:29.590Z,14.80
2022-10-11T16:14:31.144Z,14.70
2022-10-11T16:17:32.845Z,14.70
2022-10-11T16:20:38.200Z,14.70
2022-10-11T16:23:40.091Z,14.60
2022-10-11T16:26:41.746Z,14.50
2022-10-11T16:29:43.423Z,14.40
2022-10-11T16:32:45.454Z,14.30
2022-10-11T16:35:47.109Z,14.20
2022-10-11T16:38:48.667Z,14.10
2022-10-11T16:41:50.408Z,14.00
2022-10-11T16:44:52.204Z,13.80
2022-10-11T16:47:53.783Z,13.70
2022-10-11T16:51:05.355Z,13.50
2022-10-11T16:54:07.243Z,13.40
2022-10-11T16:57:10.501Z,13.30
2022-10-11T17:00:13.004Z,13.10
2022-10-11T17:03:14.557Z,13.00
2022-10-11T17:06:16.171Z,12.90
2022-10-11T17:09:18.205Z,12.80
2022-10-11T17:12:22.889Z,12.70
2022-10-11T17:15:26.026Z,12.60
2022-10-11T17:18:27.907Z,12.40
2022-10-11T17:21:29.583Z,12.30
2022-10-11T17:24:31.183Z,12.30
2022-10-11T17:27:32.928Z,12.20
2022-10-11T17:30:34.592Z,12.00
2022-10-11T17:33:36.204Z,11.90
2022-10-11T17:36:38.214Z,11.80
2022-10-11T17:39:40.174Z,11.70
2022-10-11T17:42:41.872Z,11.60
2022-10-11T17:45:43.448Z,11.50
2022-10-11T17:48:45.431Z,11.40
2022-10-11T17:51:47.007Z,11.40
2022-10-11T17:54:48.577Z,11.30
2022-10-11T17:57:50.131Z,11.20
2022-10-11T18:00:51.745Z,11.20
2022-10-11T18:03:58.726Z,11.10
2022-10-11T18:07:00.367Z,11.00
2022-10-11T18:10:01.958Z,10.90
2022-10-11T18:13:06.668Z,10.90
2022-10-11T18:16:09.818Z,10.80
2022-10-11T18:19:13.474Z,10.80
2022-10-11T18:22:15.056Z,10.70
2022-10-11T18:25:16.828Z,10.60
2022-10-11T18:28:18.508Z,10.60
2022-10-11T18:31:23.743Z,10.50
2022-10-11T18:34:25.315Z,10.50
2022-10-11T18:37:27.246Z,10.40
2022-10-11T18:40:28.855Z,10.30
2022-10-11T18:43:30.450Z,10.20
2022-10-11T18:46:33.238Z,10.20
2022-10-11T18:49:34.843Z,10.10
2022-10-11T18:52:37.633Z,10.00
2022-10-11T18:55:41.706Z,9.90
2022-10-11T18:58:44.550Z,9.90
2022-10-11T19:01:46.622Z,9.80
2022-10-11T19:04:52.489Z,9.80
2022-10-11T19:07:54.067Z,9.70
2022-10-11T19:10:55.632Z,9.60
2022-10-11T19:13:58.536Z,9.60
2022-10-11T19:17:00.213Z,9.60
2022-10-11T19:20:01.807Z,9.50
2022-10-11T19:23:03.386Z,9.50
2022-10-11T19:26:06.871Z,9.40
2022-10-11T19:29:11.498Z,9.40
2022-10-11T19:32:13.096Z,9.30
2022-10-11T19:35:19.681Z,9.30
2022-10-11T19:41:28.295Z,9.20
2022-10-11T19:44:29.943Z,9.20
2022-10-11T19:47:31.755Z,9.20
2022-10-11T19:50:33.529Z,9.20
2022-10-11T19:53:35.386Z,9.10
2022-10-11T19:56:37.988Z,9.10
2022-10-11T19:59:39.556Z,9.10
2022-10-11T20:02:41.129Z,9.10
2022-10-11T20:05:42.754Z,9.10
2022-10-11T20:08:45.780Z,9.00
2022-10-11T20:11:47.440Z,8.90
2022-10-11T20:14:49.002Z,8.90
2022-10-11T20:17:51.633Z,8.90
2022-10-11T20:20:55.096Z,8.80
2022-10-11T20:23:59.832Z,8.80
2022-10-11T20:27:05.614Z,8.80
2022-10-11T20:30:07.534Z,8.70
2022-10-11T20:33:09.619Z,8.70
2022-10-11T20:36:17.222Z,8.70
2022-10-11T20:39:18.810Z,8.70
2022-10-11T20:42:20.447Z,8.60
2022-10-11T20:45:22.171Z,8.60
2022-10-11T20:48:23.886Z,8.50
2022-10-11T20:51:26.719Z,8.50
2022-10-11T20:54:29.722Z,8.40
2022-10-11T20:57:31.749Z,8.40
2022-10-11T21:00:33.564Z,8.30
2022-10-11T21:03:35.171Z,8.20
2022-10-11T21:06:36.761Z,8.20
2022-10-11T21:09:38.363Z,8.10
2022-10-11T21:12:39.990Z,8.10
2022-10-11T21:15:41.704Z,8.10
2022-10-11T21:18:43.383Z,8.00
2022-10-11T21:21:52.562Z,8.00
2022-10-11T21:24:55.259Z,8.00
2022-10-11T21:27:56.901Z,8.00
2022-10-11T21:31:09.373Z,8.00
2022-10-11T21:34:11.729Z,7.90
2022-10-11T21:37:13.687Z,7.80
2022-10-11T21:40:15.383Z,7.80
2022-10-11T21:43:17.011Z,7.80
2022-10-11T21:46:21.457Z,7.80
2022-10-11T21:49:23.206Z,7.60
2022-10-11T21:52:24.864Z,7.50
2022-10-11T21:55:27.666Z,7.60
2022-10-11T21:58:29.316Z,7.50
2022-10-11T22:01:31.011Z,7.50
2022-10-11T22:04:32.676Z,7.40
2022-10-11T22:07:34.324Z,7.30
2022-10-11T22:10:36.040Z,7.30
2022-10-11T22:13:38.307Z,7.30
2022-10-11T22:16:40.049Z,7.30
2022-10-11T22:19:41.730Z,7.20
2022-10-11T22:22:43.343Z,7.30
2022-10-11T22:25:45.829Z,7.30
2022-10-11T22:28:48.213Z,7.40
2022-10-11T22:31:49.923Z,7.40
2022-10-11T22:34:51.946Z,7.30
2022-10-11T22:37:53.579Z,7.30
2022-10-11T22:40:57.797Z,7.30
2022-10-11T22:43:59.387Z,7.20
2022-10-11T22:47:01.001Z,7.20
2022-10-11T22:50:02.869Z,7.10
2022-10-11T22:53:06.295Z,7.10
2022-10-11T22:56:08.853Z,7.00
2022-10-11T22:59:10.442Z,7.00
2022-10-11T23:02:12.021Z,7.00
2022-10-11T23:05:13.752Z,6.90
2022-10-11T23:08:15.376Z,6.90
2022-10-11T23:11:17.134Z,6.90
2022-10-11T23:14:18.763Z,6.90
2022-10-11T23:17:20.373Z,6.80
2022-10-11T23:20:21.936Z,6.80
2022-10-11T23:23:23.537Z,6.80
2022-10-11T23:26:25.169Z,6.80
2022-10-11T23:29:29.169Z,6.80
2022-10-11T23:32:30.794Z,6.80
2022-10-11T23:35:34.180Z,6.80
2022-10-11T23:38:35.773Z,6.80
2022-10-11T23:41:37.357Z,6.70
2022-10-11T23:44:39.144Z,6.70
2022-10-11T23:47:40.954Z,6.80
2022-10-11T23:50:42.916Z,6.80
2022-10-11T23:53:44.549Z,6.80
2022-10-11T23:56:46.153Z,6.80
2022-10-11T23:59:47.759Z,6.70
